createdAt,value
2022-10-04T00:00:27.883Z,101722.16
2022-10-04T00:03:24.722Z,101716.38
2022-10-04T00:05:58.281Z,101679.59
2022-10-04T00:08:33.793Z,101708.38
2022-10-04T00:11:06.056Z,101708.72
2022-10-04T00:13:35.539Z,101688.47
2022-10-04T00:16:02.505Z,101695.56
2022-10-04T00:18:40.511Z,101715.44
2022-10-04T00:21:09.002Z,101716.28
2022-10-04T00:23:38.490Z,101716.16
2022-10-04T00:26:12.968Z,101707.59
2022-10-04T00:28:40.145Z,101708.03
2022-10-04T00:31:09.808Z,101702.09
2022-10-04T00:33:37.517Z,101707.63
2022-10-04T00:36:25.832Z,101713.63
2022-10-04T00:39:25.604Z,101713.72
2022-10-04T00:42:14.114Z,101715.28
2022-10-04T00:45:02.304Z,101698.47
2022-10-04T00:47:46.970Z,101695.16
2022-10-04T00:50:28.747Z,101693.63
2022-10-04T00:52:59.216Z,101691.81
2022-10-04T00:55:35.834Z,101679.69
2022-10-04T00:58:08.722Z,101688.91
2022-10-04T01:00:37.096Z,101689.25
2022-10-04T01:03:13.838Z,101682.44
2022-10-04T01:05:45.479Z,101684.16
2022-10-04T01:08:22.848Z,101666.19
2022-10-04T01:11:18.029Z,101676.44
2022-10-04T01:13:56.603Z,101682.41
2022-10-04T01:16:27.600Z,101671.88
2022-10-04T01:18:54.323Z,101660.88
2022-10-04T01:21:24.218Z,101655.63
2022-10-04T01:23:52.125Z,101658.50
2022-10-04T01:26:32.134Z,101645.88
2022-10-04T01:29:01.825Z,101637.09
2022-10-04T01:31:29.428Z,101644.75
2022-10-04T01:33:56.564Z,101636.28
2022-10-04T01:36:23.805Z,101637.28
2022-10-04T01:38:50.868Z,101634.69
2022-10-04T01:41:21.726Z,101630.59
2022-10-04T01:43:53.068Z,101621.81
2022-10-04T01:46:25.628Z,101621.34
2022-10-04T01:48:57.055Z,101631.00
2022-10-04T01:51:31.777Z,101630.44
2022-10-04T01:54:10.181Z,101631.47
2022-10-04T01:56:46.836Z,101623.38
2022-10-04T01:59:29.217Z,101624.88
2022-10-04T02:02:05.812Z,101629.59
2022-10-04T02:04:35.755Z,101616.72
2022-10-04T02:07:04.609Z,101622.16
2022-10-04T02:09:39.166Z,101632.03
2022-10-04T02:12:06.832Z,101624.91
2022-10-04T02:14:36.966Z,101633.44
2022-10-04T02:17:10.498Z,101619.00
2022-10-04T02:19:42.859Z,101613.41
2022-10-04T02:22:11.108Z,101614.66
2022-10-04T02:24:42.624Z,101609.47
2022-10-04T02:27:09.326Z,101607.25
2022-10-04T02:29:36.133Z,101589.66
2022-10-04T02:32:23.965Z,101590.97
2022-10-04T02:34:51.551Z,101588.84
2022-10-04T02:37:18.629Z,101592.38
2022-10-04T02:39:54.154Z,101591.44
2022-10-04T02:42:35.392Z,101601.97
2022-10-04T02:45:13.795Z,101592.66
2022-10-04T02:47:49.989Z,101583.38
2022-10-04T02:50:23.850Z,101577.50
2022-10-04T02:52:58.431Z,101587.25
2022-10-04T02:55:31.041Z,101588.00
2022-10-04T02:57:59.737Z,101586.19
2022-10-04T03:00:29.801Z,101584.66
2022-10-04T03:03:23.552Z,101582.31
2022-10-04T03:05:58.164Z,101577.84
2022-10-04T03:08:26.893Z,101577.53
2022-10-04T03:10:53.820Z,101577.53
2022-10-04T03:13:21.375Z,101581.13
2022-10-04T03:15:50.158Z,101587.00
2022-10-04T03:18:18.284Z,101587.81
2022-10-04T03:20:47.251Z,101586.19
2022-10-04T03:23:17.351Z,101587.59
2022-10-04T03:26:05.846Z,101578.28
2022-10-04T03:28:32.532Z,101574.50
2022-10-04T03:31:00.474Z,101574.69
2022-10-04T03:33:28.749Z,101565.03
2022-10-04T03:35:58.460Z,101562.31
2022-10-04T03:38:28.329Z,101568.28
2022-10-04T03:41:01.708Z,101569.09
2022-10-04T03:43:31.762Z,101567.53
2022-10-04T03:46:00.659Z,101564.09
2022-10-04T03:48:42.758Z,101554.03
2022-10-04T03:51:16.045Z,101559.78
2022-10-04T03:53:45.732Z,101565.63
2022-10-04T03:56:15.891Z,101564.69
2022-10-04T03:58:42.916Z,101566.44
2022-10-04T04:01:24.808Z,101556.28
2022-10-04T04:04:18.964Z,101546.38
2022-10-04T04:06:57.594Z,101534.53
2022-10-04T04:09:43.634Z,101526.81
2022-10-04T04:12:17.397Z,101515.09
2022-10-04T04:14:46.869Z,101523.09
2022-10-04T04:17:27.590Z,101527.16
2022-10-04T04:20:00.457Z,101529.16
2022-10-04T04:22:31.380Z,101532.72
2022-10-04T04:25:05.531Z,101531.00
2022-10-04T04:27:36.316Z,101523.09
2022-10-04T04:30:06.356Z,101534.66
2022-10-04T04:32:52.568Z,101536.44
2022-10-04T04:35:25.504Z,101534.22
2022-10-04T04:38:23.733Z,101530.63
2022-10-04T04:40:55.589Z,101519.06
2022-10-04T04:43:25.821Z,101535.66
2022-10-04T04:46:14.918Z,101533.72
2022-10-04T04:48:45.088Z,101525.69
2022-10-04T04:51:20.866Z,101519.28
2022-10-04T04:53:49.001Z,101522.59
2022-10-04T04:56:23.306Z,101520.34
2022-10-04T04:58:52.630Z,101525.44
2022-10-04T05:01:33.902Z,101527.34
2022-10-04T05:04:24.186Z,101520.72
2022-10-04T05:07:06.216Z,101523.56
2022-10-04T05:09:36.135Z,101525.13
2022-10-04T05:12:12.795Z,101508.22
2022-10-04T05:14:45.624Z,101517.09
2022-10-04T05:17:22.946Z,101505.75
2022-10-04T05:19:51.958Z,101528.38
2022-10-04T05:22:23.072Z,101519.59
2022-10-04T05:24:54.714Z,101536.34
2022-10-04T05:27:29.938Z,101527.31
2022-10-04T05:30:14.593Z,101523.72
2022-10-04T05:32:54.897Z,101528.28
2022-10-04T05:35:23.425Z,101529.38
2022-10-04T05:38:07.822Z,101525.00
2022-10-04T05:40:52.507Z,101529.47
2022-10-04T05:43:34.952Z,101525.88
2022-10-04T05:46:25.515Z,101522.16
2022-10-04T05:49:08.339Z,101508.13
2022-10-04T05:51:49.099Z,101509.34
2022-10-04T05:54:23.734Z,101508.56
2022-10-04T05:57:20.655Z,101522.25
2022-10-04T06:00:04.122Z,101517.94
2022-10-04T06:02:52.010Z,101527.59
2022-10-04T06:05:29.346Z,101523.38
2022-10-04T06:08:21.184Z,101525.50
2022-10-04T06:11:05.327Z,101528.38
2022-10-04T06:13:53.636Z,101534.41
2022-10-04T06:16:32.351Z,101521.06
2022-10-04T06:19:24.005Z,101529.13
2022-10-04T06:21:51.794Z,101532.00
2022-10-04T06:24:27.127Z,101534.56
2022-10-04T06:27:04.597Z,101535.69
2022-10-04T06:29:38.724Z,101526.97
2022-10-04T06:32:20.512Z,101536.44
2022-10-04T06:35:16.433Z,101533.06
2022-10-04T06:38:07.128Z,101528.69
2022-10-04T06:41:15.417Z,101527.34
2022-10-04T06:43:47.688Z,101522.25
2022-10-04T06:46:23.443Z,101523.09
2022-10-04T06:49:09.833Z,101523.72
2022-10-04T06:51:52.693Z,101512.19
2022-10-04T06:54:31.972Z,101510.75
2022-10-04T06:56:58.493Z,101511.66
2022-10-04T06:59:54.493Z,101504.88
2022-10-04T07:02:48.609Z,101506.31
2022-10-04T07:05:34.089Z,101506.72
2022-10-04T07:08:12.262Z,101507.31
2022-10-04T07:10:56.793Z,101502.13
2022-10-04T07:13:34.409Z,101509.75
2022-10-04T07:16:17.291Z,101476.19
2022-10-04T07:19:24.750Z,101510.38
2022-10-04T07:22:06.852Z,101507.06
2022-10-04T07:25:27.937Z,101504.00
2022-10-04T07:28:29.435Z,101503.84
2022-10-04T07:31:03.665Z,101505.78
2022-10-04T07:33:35.609Z,101504.22
2022-10-04T07:36:10.729Z,101516.34
2022-10-04T07:39:01.915Z,101522.66
2022-10-04T07:41:44.259Z,101527.06
2022-10-04T07:44:46.649Z,101529.06
2022-10-04T07:47:20.337Z,101528.44
2022-10-04T07:49:50.592Z,101535.56
2022-10-04T07:52:29.696Z,101533.94
2022-10-04T07:55:17.532Z,101533.88
2022-10-04T07:58:09.502Z,101548.97
2022-10-04T08:00:47.453Z,101540.47
2022-10-04T08:03:56.519Z,101535.63
2022-10-04T08:06:27.610Z,101533.25
2022-10-04T08:09:17.181Z,101526.38
2022-10-04T08:11:45.407Z,101523.03
2022-10-04T08:14:29.795Z,101525.66
2022-10-04T08:17:15.635Z,101523.44
2022-10-04T08:20:12.327Z,101531.22
2022-10-04T08:23:16.476Z,101527.88
2022-10-04T08:25:59.539Z,101539.28
2022-10-04T08:29:35.772Z,101534.50
2022-10-04T08:32:31.713Z,101532.91
2022-10-04T08:35:20.073Z,101521.66
2022-10-04T08:37:49.594Z,101532.41
2022-10-04T08:40:33.251Z,101533.53
2022-10-04T08:43:30.858Z,101529.84
2022-10-04T08:46:09.958Z,101521.31
2022-10-04T08:48:53.734Z,101520.66
2022-10-04T08:51:20.272Z,101511.47
2022-10-04T08:54:19.125Z,101510.47
2022-10-04T08:56:57.920Z,101520.84
2022-10-04T09:00:02.078Z,101516.69
2022-10-04T09:02:55.484Z,101512.63
2022-10-04T09:05:37.946Z,101517.97
2022-10-04T09:08:42.435Z,101518.97
2022-10-04T09:11:28.285Z,101514.50
2022-10-04T09:14:07.008Z,101512.88
2022-10-04T09:17:19.768Z,101504.38
2022-10-04T09:20:39.087Z,101501.19
2022-10-04T09:23:34.059Z,101501.13
2022-10-04T09:26:19.437Z,101492.53
2022-10-04T09:28:52.232Z,101484.84
2022-10-04T09:32:04.332Z,101481.50
2022-10-04T09:34:53.188Z,101473.88
2022-10-04T09:37:41.525Z,101471.38
2022-10-04T09:41:05.958Z,101479.25
2022-10-04T09:43:57.298Z,101467.06
2022-10-04T09:46:56.778Z,101462.75
2022-10-04T09:49:37.748Z,101459.25
2022-10-04T09:52:21.042Z,101452.28
2022-10-04T09:55:04.961Z,101448.09
2022-10-04T09:58:01.955Z,101449.00
2022-10-04T10:00:40.953Z,101455.09
2022-10-04T10:03:26.444Z,101454.25
2022-10-04T10:06:05.201Z,101448.22
2022-10-04T10:08:45.054Z,101447.28
2022-10-04T10:11:42.753Z,101445.69
2022-10-04T10:14:21.631Z,101435.06
2022-10-04T10:17:25.943Z,101421.13
2022-10-04T10:20:16.657Z,101422.06
2022-10-04T10:22:55.385Z,101429.97
2022-10-04T10:25:47.819Z,101432.59
2022-10-04T10:28:15.088Z,101430.00
2022-10-04T10:31:06.183Z,101432.63
2022-10-04T10:34:11.015Z,101428.25
2022-10-04T10:36:59.961Z,101430.88
2022-10-04T10:39:43.958Z,101421.25
2022-10-04T10:42:49.006Z,101433.50
2022-10-04T10:45:38.821Z,101429.09
2022-10-04T10:48:35.567Z,101418.59
2022-10-04T10:51:29.591Z,101430.00
2022-10-04T10:54:34.967Z,101423.84
2022-10-04T10:57:10.716Z,101422.00
2022-10-04T10:59:56.546Z,101415.03
2022-10-04T11:02:47.586Z,101419.38
2022-10-04T11:05:29.046Z,101420.25
2022-10-04T11:08:02.393Z,101420.25
2022-10-04T11:11:06.384Z,101413.19
2022-10-04T11:14:12.328Z,101412.31
2022-10-04T11:17:30.981Z,101407.81
2022-10-04T11:20:24.849Z,101413.88
2022-10-04T11:23:11.041Z,101404.09
2022-10-04T11:25:43.783Z,101405.91
2022-10-04T11:28:31.910Z,101406.56
2022-10-04T11:30:58.531Z,101403.94
2022-10-04T11:33:46.609Z,101401.28
2022-10-04T11:36:16.044Z,101395.03
2022-10-04T11:39:14.997Z,101397.44
2022-10-04T11:41:52.906Z,101382.25
2022-10-04T11:44:48.521Z,101389.31
2022-10-04T11:47:39.589Z,101385.81
2022-10-04T11:50:29.166Z,101381.50
2022-10-04T11:53:22.010Z,101369.97
2022-10-04T11:56:04.059Z,101365.34
2022-10-04T11:58:49.843Z,101370.47
2022-10-04T12:01:30.332Z,101370.34
2022-10-04T12:04:18.502Z,101369.72
2022-10-04T12:07:22.649Z,101367.84
2022-10-04T12:10:00.803Z,101346.66
2022-10-04T12:12:36.870Z,101357.06
2022-10-04T12:15:41.937Z,101355.78
2022-10-04T12:18:14.940Z,101350.19
2022-10-04T12:21:21.984Z,101344.63
2022-10-04T12:24:07.294Z,101353.50
2022-10-04T12:26:49.194Z,101339.03
2022-10-04T12:29:30.975Z,101337.66
2022-10-04T12:32:04.366Z,101327.44
2022-10-04T12:34:55.389Z,101326.81
2022-10-04T12:37:34.612Z,101327.41
2022-10-04T12:40:14.779Z,101334.13
2022-10-04T12:42:53.078Z,101324.34
2022-10-04T12:45:27.351Z,101320.66
2022-10-04T12:48:05.724Z,101309.78
2022-10-04T12:51:04.010Z,101321.50
2022-10-04T12:53:55.479Z,101313.38
2022-10-04T12:56:46.293Z,101312.44
2022-10-04T12:59:19.320Z,101309.84
2022-10-04T13:02:21.823Z,101299.06
2022-10-04T13:04:55.239Z,101289.72
2022-10-04T13:07:51.263Z,101295.34
2022-10-04T13:10:24.670Z,101294.25
2022-10-04T13:12:55.222Z,101292.38
2022-10-04T13:18:46.455Z,101295.16
2022-10-04T13:21:35.453Z,101289.78
2022-10-04T13:24:56.580Z,101279.44
2022-10-04T13:27:28.665Z,101279.00
2022-10-04T13:30:16.797Z,101279.81
2022-10-04T13:32:54.841Z,101262.66
2022-10-04T13:35:31.928Z,101262.16
2022-10-04T13:38:31.687Z,101261.91
2022-10-04T13:41:30.996Z,101261.31
2022-10-04T13:44:07.983Z,101244.59
2022-10-04T13:46:58.927Z,101245.19
2022-10-04T13:50:06.818Z,101244.88
2022-10-04T13:53:14.012Z,101240.81
2022-10-04T13:56:30.037Z,101248.34
2022-10-04T13:59:35.207Z,101239.19
2022-10-04T14:02:21.423Z,101238.75
2022-10-04T14:05:25.753Z,101238.53
2022-10-04T14:08:17.455Z,101235.69
2022-10-04T14:11:34.581Z,101232.16
2022-10-04T14:15:01.457Z,101227.31
2022-10-04T14:17:46.290Z,101234.03
2022-10-04T14:20:39.070Z,101237.44
2022-10-04T14:23:08.577Z,101239.97
2022-10-04T14:25:53.421Z,101231.44
2022-10-04T14:28:51.523Z,101219.22
2022-10-04T14:31:42.309Z,101225.34
2022-10-04T14:34:47.612Z,101232.41
2022-10-04T14:37:42.883Z,101237.44
2022-10-04T14:40:27.796Z,101234.78
2022-10-04T14:43:30.643Z,101238.59
2022-10-04T14:46:34.273Z,101242.47
2022-10-04T14:49:13.346Z,101228.19
2022-10-04T14:51:54.680Z,101233.75
2022-10-04T14:54:28.964Z,101213.28
2022-10-04T14:57:12.192Z,101209.16
2022-10-04T15:00:11.425Z,101216.03
2022-10-04T15:02:38.124Z,101207.22
2022-10-04T15:05:08.390Z,101198.69
2022-10-04T15:07:39.182Z,101184.81
2022-10-04T15:10:22.480Z,101192.25
2022-10-04T15:13:11.525Z,101195.13
2022-10-04T15:15:45.107Z,101193.38
2022-10-04T15:18:38.057Z,101195.81
2022-10-04T15:21:32.478Z,101191.91
2022-10-04T15:24:18.091Z,101198.59
2022-10-04T15:27:22.099Z,101200.41
2022-10-04T15:30:19.646Z,101195.34
2022-10-04T15:33:13.647Z,101193.13
2022-10-04T15:36:11.529Z,101181.31
2022-10-04T15:39:06.247Z,101185.75
2022-10-04T15:42:11.995Z,101187.56
2022-10-04T15:44:59.469Z,101192.16
2022-10-04T15:47:35.045Z,101193.81
2022-10-04T15:50:26.102Z,101189.41
2022-10-04T15:53:20.100Z,101192.81
2022-10-04T15:56:09.962Z,101198.31
2022-10-04T15:59:09.053Z,101200.00
2022-10-04T16:01:51.958Z,101194.72
2022-10-04T16:04:43.327Z,101192.81
2022-10-04T16:07:47.781Z,101191.19
2022-10-04T16:10:52.201Z,101195.69
2022-10-04T16:13:28.388Z,101188.81
2022-10-04T16:16:17.550Z,101188.06
2022-10-04T16:18:58.747Z,101193.44
2022-10-04T16:21:49.963Z,101201.53
2022-10-04T16:24:19.488Z,101199.03
2022-10-04T16:26:47.579Z,101204.53
2022-10-04T16:30:14.438Z,101197.53
2022-10-04T16:32:44.759Z,101201.16
2022-10-04T16:35:25.309Z,101189.81
2022-10-04T16:38:04.140Z,101193.44
2022-10-04T16:40:30.683Z,101189.13
2022-10-04T16:43:03.829Z,101190.13
2022-10-04T16:45:49.475Z,101194.59
2022-10-04T16:48:34.633Z,101196.50
2022-10-04T16:51:22.319Z,101189.63
2022-10-04T16:54:01.229Z,101197.56
2022-10-04T16:56:31.709Z,101194.19
2022-10-04T16:59:13.633Z,101192.59
2022-10-04T17:01:55.507Z,101197.09
2022-10-04T17:04:36.110Z,101200.69
2022-10-04T17:07:13.144Z,101198.16
2022-10-04T17:09:48.859Z,101198.28
2022-10-04T17:12:27.775Z,101211.50
2022-10-04T17:15:20.902Z,101201.94
2022-10-04T17:18:01.177Z,101195.88
2022-10-04T17:20:31.039Z,101198.53
2022-10-04T17:23:19.396Z,101197.66
2022-10-04T17:26:13.551Z,101201.22
2022-10-04T17:28:56.670Z,101189.84
2022-10-04T17:31:35.618Z,101195.16
2022-10-04T17:34:34.095Z,101193.47
2022-10-04T17:37:20.854Z,101192.66
2022-10-04T17:40:12.315Z,101199.69
2022-10-04T17:42:57.826Z,101194.50
2022-10-04T17:45:56.025Z,101195.41
2022-10-04T17:49:00.937Z,101200.66
2022-10-04T17:51:52.864Z,101202.44
2022-10-04T17:54:57.728Z,101194.59
2022-10-04T17:57:33.271Z,101192.84
2022-10-04T18:00:12.001Z,101193.75
2022-10-04T18:02:59.564Z,101198.06
2022-10-04T18:05:41.712Z,101200.72
2022-10-04T18:08:39.281Z,101198.09
2022-10-04T18:11:27.134Z,101204.22
2022-10-04T18:14:00.760Z,101208.56
2022-10-04T18:16:50.933Z,101206.81
2022-10-04T18:19:36.181Z,101209.44
2022-10-04T18:22:14.910Z,101208.53
2022-10-04T18:25:22.403Z,101218.97
2022-10-04T18:27:51.723Z,101211.97
2022-10-04T18:30:21.267Z,101218.94
2022-10-04T18:32:57.364Z,101217.13
2022-10-04T18:35:26.685Z,101216.25
2022-10-04T18:38:05.459Z,101220.56
2022-10-04T18:40:41.715Z,101219.66
2022-10-04T18:43:29.665Z,101211.72
2022-10-04T18:46:21.008Z,101225.66
2022-10-04T18:49:04.203Z,101236.09
2022-10-04T18:51:40.570Z,101220.38
2022-10-04T18:54:22.024Z,101210.69
2022-10-04T18:56:56.432Z,101212.34
2022-10-04T18:59:58.514Z,101217.66
2022-10-04T19:02:42.672Z,101209.78
2022-10-04T19:05:23.721Z,101205.47
2022-10-04T19:08:21.781Z,101225.63
2022-10-04T19:11:19.162Z,101226.47
2022-10-04T19:14:06.094Z,101240.25
2022-10-04T19:16:49.094Z,101235.69
2022-10-04T19:19:16.164Z,101248.84
2022-10-04T19:21:59.148Z,101238.38
2022-10-04T19:24:48.255Z,101245.09
2022-10-04T19:27:30.055Z,101230.41
2022-10-04T19:30:15.201Z,101236.63
2022-10-04T19:32:59.572Z,101239.91
2022-10-04T19:36:04.182Z,101234.59
2022-10-04T19:38:55.437Z,101236.31
2022-10-04T19:41:47.826Z,101233.63
2022-10-04T19:44:23.718Z,101210.88
2022-10-04T19:46:59.215Z,101199.63
2022-10-04T19:50:03.688Z,101213.50
2022-10-04T19:52:55.040Z,101226.50
2022-10-04T19:55:38.068Z,101217.81
2022-10-04T19:58:41.578Z,101221.34
2022-10-04T20:01:16.598Z,101221.34
2022-10-04T20:03:43.932Z,101227.41
2022-10-04T20:06:19.816Z,101222.03
2022-10-04T20:08:51.166Z,101215.72
2022-10-04T20:11:27.657Z,101219.31
2022-10-04T20:14:09.216Z,101223.72
2022-10-04T20:17:03.185Z,101222.00
2022-10-04T20:19:33.045Z,101232.50
2022-10-04T20:22:09.995Z,101232.44
2022-10-04T20:24:36.473Z,101224.31
2022-10-04T20:27:09.154Z,101234.66
2022-10-04T20:29:38.795Z,101241.69
2022-10-04T20:32:06.379Z,101232.16
2022-10-04T20:34:35.583Z,101229.19
2022-10-04T20:37:04.329Z,101226.47
2022-10-04T20:39:45.693Z,101223.97
2022-10-04T20:42:29.858Z,101207.28
2022-10-04T20:45:01.700Z,101219.59
2022-10-04T20:47:37.990Z,101218.88
2022-10-04T20:50:14.355Z,101203.22
2022-10-04T20:52:46.997Z,101202.38
2022-10-04T20:55:28.128Z,101197.16
2022-10-04T20:57:56.303Z,101197.16
2022-10-04T21:00:25.796Z,101196.28
2022-10-04T21:03:08.714Z,101200.56
2022-10-04T21:05:35.582Z,101198.84
2022-10-04T21:08:23.391Z,101203.22
2022-10-04T21:11:13.233Z,101198.78
2022-10-04T21:13:49.436Z,101211.03
2022-10-04T21:16:40.972Z,101185.63
2022-10-04T21:19:32.603Z,101197.91
2022-10-04T21:22:01.322Z,101189.09
2022-10-04T21:24:53.906Z,101194.25
2022-10-04T21:27:38.211Z,101195.59
2022-10-04T21:30:14.387Z,101191.38
2022-10-04T21:32:40.984Z,101192.25
2022-10-04T21:35:09.070Z,101199.19
2022-10-04T21:37:35.988Z,101188.63
2022-10-04T21:40:04.701Z,101189.59
2022-10-04T21:42:31.452Z,101190.41
2022-10-04T21:44:58.209Z,101192.16
2022-10-04T21:47:24.976Z,101189.56
2022-10-04T21:49:52.050Z,101197.47
2022-10-04T21:52:18.737Z,101196.63
2022-10-04T21:54:45.881Z,101193.13
2022-10-04T21:57:13.234Z,101189.66
2022-10-04T21:59:40.026Z,101178.34
2022-10-04T22:02:07.892Z,101187.91
2022-10-04T22:04:34.757Z,101176.59
2022-10-04T22:07:01.414Z,101183.56
2022-10-04T22:09:28.981Z,101190.53
2022-10-04T22:11:55.959Z,101191.38
2022-10-04T22:14:22.504Z,101187.97
2022-10-04T22:16:49.645Z,101196.66
2022-10-04T22:19:16.599Z,101198.53
2022-10-04T22:21:43.540Z,101199.34
2022-10-04T22:24:18.464Z,101206.31
2022-10-04T22:26:45.713Z,101215.94
2022-10-04T22:29:14.518Z,101213.22
2022-10-04T22:31:44.133Z,101201.03
2022-10-04T22:34:19.872Z,101201.88
2022-10-04T22:36:49.567Z,101207.94
2022-10-04T22:39:20.749Z,101205.41
2022-10-04T22:41:52.444Z,101196.66
2022-10-04T22:44:22.382Z,101194.00
2022-10-04T22:46:52.765Z,101193.13
2022-10-04T22:49:25.344Z,101188.78
2022-10-04T22:51:54.440Z,101180.84
2022-10-04T22:54:24.190Z,101180.84
2022-10-04T22:56:51.647Z,101175.56
2022-10-04T22:59:19.894Z,101186.88
2022-10-04T23:01:47.353Z,101177.28
2022-10-04T23:04:25.614Z,101181.59
2022-10-04T23:06:54.725Z,101184.09
2022-10-04T23:09:21.373Z,101181.50
2022-10-04T23:11:48.196Z,101167.56
2022-10-04T23:14:15.115Z,101180.63
2022-10-04T23:16:43.110Z,101182.38
2022-10-04T23:19:12.569Z,101190.22
2022-10-04T23:21:42.627Z,101183.22
2022-10-04T23:24:18.583Z,101193.78
2022-10-04T23:26:55.739Z,101192.78
2022-10-04T23:29:29.922Z,101188.47
2022-10-04T23:31:57.177Z,101184.22
2022-10-04T23:34:27.637Z,101187.63
2022-10-04T23:36:54.764Z,101176.38
2022-10-04T23:39:28.549Z,101185.13
2022-10-04T23:41:56.518Z,101183.41
2022-10-04T23:44:28.715Z,101173.03
2022-10-04T23:46:55.243Z,101189.56
2022-10-04T23:49:22.678Z,101183.50
2022-10-04T23:51:55.520Z,101194.81
2022-10-04T23:54:22.516Z,101189.63
2022-10-04T23:56:49.321Z,101183.50
2022-10-04T23:59:18.164Z,101188.72
